sensor_id;sensor_type;location;lat;lon;timestamp;pressure;altitude;pressure_sealevel;temperature;humidity
26043;BME280;13818;52.156;5.382;2024-03-02T00:01:12;99505.88;;;8.98;100.00
26043;BME280;13818;52.156;5.382;2024-03-02T00:03:39;99498.97;;;8.95;100.00
26043;BME280;13818;52.156;5.382;2024-03-02T00:06:07;99494.50;;;8.96;100.00
26043;BME280;13818;52.156;5.382;2024-03-02T00:08:33;99509.31;;;9.00;100.00
26043;BME280;13818;52.156;5.382;2024-03-02T00:11:00;99499.63;;;8.99;100.00
26043;BME280;13818;52.156;5.382;2024-03-02T00:13:30;99500.38;;;9.01;100.00
26043;BME280;13818;52.156;5.382;2024-03-02T00:15:58;99505.53;;;9.04;100.00
26043;BME280;13818;52.156;5.382;2024-03-02T00:18:29;99508.91;;;9.06;100.00
26043;BME280;13818;52.156;5.382;2024-03-02T00:20:57;99520.22;;;9.10;100.00
26043;BME280;13818;52.156;5.382;2024-03-02T00:23:28;99525.38;;;9.13;100.00
26043;BME280;13818;52.156;5.382;2024-03-02T00:25:57;99531.34;;;9.17;100.00
26043;BME280;13818;52.156;5.382;2024-03-02T00:28:26;99551.47;;;9.21;100.00
26043;BME280;13818;52.156;5.382;2024-03-02T00:31:02;99549.59;;;9.23;100.00
26043;BME280;13818;52.156;5.382;2024-03-02T00:33:32;99566.19;;;9.26;100.00
26043;BME280;13818;52.156;5.382;2024-03-02T00:35:59;99592.59;;;9.30;100.00
26043;BME280;13818;52.156;5.382;2024-03-02T00:38:27;99593.16;;;9.35;100.00
26043;BME280;13818;52.156;5.382;2024-03-02T00:40:54;99605.31;;;9.39;100.00
26043;BME280;13818;52.156;5.382;2024-03-02T00:43:47;99601.53;;;9.43;100.00
26043;BME280;13818;52.156;5.382;2024-03-02T00:46:16;99605.31;;;9.39;100.00
26043;BME280;13818;52.156;5.382;2024-03-02T00:48:53;99605.41;;;9.37;100.00
26043;BME280;13818;52.156;5.382;2024-03-02T00:51:20;99605.41;;;9.37;100.00
26043;BME280;13818;52.156;5.382;2024-03-02T00:53:47;99604.94;;;9.31;100.00
26043;BME280;13818;52.156;5.382;2024-03-02T00:56:14;99611.94;;;9.32;100.00
26043;BME280;13818;52.156;5.382;2024-03-02T00:58:40;99619.94;;;9.32;100.00
26043;BME280;13818;52.156;5.382;2024-03-02T01:01:07;99619.56;;;9.23;100.00
26043;BME280;13818;52.156;5.382;2024-03-02T01:03:35;99625.72;;;9.24;100.00
26043;BME280;13818;52.156;5.382;2024-03-02T01:06:02;99627.13;;;9.15;100.00
26043;BME280;13818;52.156;5.382;2024-03-02T01:08:28;99626.38;;;9.13;100.00
26043;BME280;13818;52.156;5.382;2024-03-02T01:10:55;99620.03;;;9.16;100.00
26043;BME280;13818;52.156;5.382;2024-03-02T01:13:22;99623.31;;;9.05;100.00
26043;BME280;13818;52.156;5.382;2024-03-02T01:15:50;99627.94;;;9.01;100.00
26043;BME280;13818;52.156;5.382;2024-03-02T01:18:17;99613.81;;;9.01;100.00
26043;BME280;13818;52.156;5.382;2024-03-02T01:20:43;99609.69;;;8.95;100.00
26043;BME280;13818;52.156;5.382;2024-03-02T01:23:11;99617.19;;;8.88;100.00
26043;BME280;13818;52.156;5.382;2024-03-02T01:25:38;99628.38;;;8.79;100.00
26043;BME280;13818;52.156;5.382;2024-03-02T01:28:05;99622.53;;;8.72;100.00
26043;BME280;13818;52.156;5.382;2024-03-02T01:30:32;99637.72;;;8.54;100.00
26043;BME280;13818;52.156;5.382;2024-03-02T01:32:58;99627.88;;;8.56;100.00
26043;BME280;13818;52.156;5.382;2024-03-02T01:35:25;99633.09;;;8.58;100.00
26043;BME280;13818;52.156;5.382;2024-03-02T01:37:52;99627.00;;;8.56;100.00
26043;BME280;13818;52.156;5.382;2024-03-02T01:40:20;99631.28;;;8.58;100.00
26043;BME280;13818;52.156;5.382;2024-03-02T01:42:48;99632.31;;;8.56;100.00
26043;BME280;13818;52.156;5.382;2024-03-02T01:45:15;99636.25;;;8.33;100.00
26043;BME280;13818;52.156;5.382;2024-03-02T01:47:41;99633.00;;;8.27;100.00
26043;BME280;13818;52.156;5.382;2024-03-02T01:50:08;99630.84;;;8.18;100.00
26043;BME280;13818;52.156;5.382;2024-03-02T01:52:36;99631.03;;;8.31;100.00
26043;BME280;13818;52.156;5.382;2024-03-02T01:55:05;99644.56;;;8.26;100.00
26043;BME280;13818;52.156;5.382;2024-03-02T01:57:34;99641.56;;;8.33;100.00
26043;BME280;13818;52.156;5.382;2024-03-02T02:00:01;99643.78;;;8.40;100.00
26043;BME280;13818;52.156;5.382;2024-03-02T02:02:28;99641.47;;;8.34;100.00
26043;BME280;13818;52.156;5.382;2024-03-02T02:04:55;99647.13;;;8.28;100.00
26043;BME280;13818;52.156;5.382;2024-03-02T02:07:21;99634.78;;;8.27;100.00
26043;BME280;13818;52.156;5.382;2024-03-02T02:09:48;99625.38;;;8.21;100.00
26043;BME280;13818;52.156;5.382;2024-03-02T02:12:15;99643.63;;;8.27;100.00
26043;BME280;13818;52.156;5.382;2024-03-02T02:14:48;99647.03;;;8.29;100.00
26043;BME280;13818;52.156;5.382;2024-03-02T02:17:16;99653.31;;;8.28;100.00
26043;BME280;13818;52.156;5.382;2024-03-02T02:19:43;99652.53;;;8.26;100.00
26043;BME280;13818;52.156;5.382;2024-03-02T02:22:11;99638.56;;;8.23;100.00
26043;BME280;13818;52.156;5.382;2024-03-02T02:24:39;99638.47;;;8.24;100.00
26043;BME280;13818;52.156;5.382;2024-03-02T02:27:06;99648.44;;;8.21;100.00
26043;BME280;13818;52.156;5.382;2024-03-02T02:29:33;99631.53;;;8.22;100.00
26043;BME280;13818;52.156;5.382;2024-03-02T02:32:00;99629.22;;;8.15;100.00
26043;BME280;13818;52.156;5.382;2024-03-02T02:34:26;99627.94;;;8.07;100.00
26043;BME280;13818;52.156;5.382;2024-03-02T02:36:53;99635.28;;;8.02;100.00
26043;BME280;13818;52.156;5.382;2024-03-02T02:39:21;99639.66;;;8.03;100.00
26043;BME280;13818;52.156;5.382;2024-03-02T02:41:48;99659.19;;;8.02;100.00
26043;BME280;13818;52.156;5.382;2024-03-02T02:44:15;99651.66;;;8.10;100.00
26043;BME280;13818;52.156;5.382;2024-03-02T02:46:41;99650.97;;;8.06;100.00
26043;BME280;13818;52.156;5.382;2024-03-02T02:49:08;99635.91;;;7.91;100.00
26043;BME280;13818;52.156;5.382;2024-03-02T02:51:34;99646.31;;;7.78;100.00
26043;BME280;13818;52.156;5.382;2024-03-02T02:54:01;99655.53;;;7.71;100.00
26043;BME280;13818;52.156;5.382;2024-03-02T02:56:28;99651.41;;;7.65;100.00
26043;BME280;13818;52.156;5.382;2024-03-02T02:58:55;99648.75;;;7.65;100.00
26043;BME280;13818;52.156;5.382;2024-03-02T03:01:21;99661.06;;;7.66;100.00
26043;BME280;13818;52.156;5.382;2024-03-02T03:03:48;99654.75;;;7.69;100.00
26043;BME280;13818;52.156;5.382;2024-03-02T03:06:14;99647.91;;;7.64;100.00
26043;BME280;13818;52.156;5.382;2024-03-02T03:08:41;99653.13;;;7.66;100.00
26043;BME280;13818;52.156;5.382;2024-03-02T03:11:07;99638.72;;;7.54;100.00
26043;BME280;13818;52.156;5.382;2024-03-02T03:13:35;99656.72;;;7.65;100.00
26043;BME280;13818;52.156;5.382;2024-03-02T03:16:03;99651.66;;;7.60;100.00
26043;BME280;13818;52.156;5.382;2024-03-02T03:18:30;99655.41;;;7.56;100.00
26043;BME280;13818;52.156;5.382;2024-03-02T03:20:57;99652.03;;;7.53;100.00
26043;BME280;13818;52.156;5.382;2024-03-02T03:23:23;99652.13;;;7.51;100.00
26043;BME280;13818;52.156;5.382;2024-03-02T03:25:51;99661.56;;;7.57;100.00
26043;BME280;13818;52.156;5.382;2024-03-02T03:28:17;99654.69;;;7.53;100.00
26043;BME280;13818;52.156;5.382;2024-03-02T03:30:45;99657.75;;;7.45;100.00
26043;BME280;13818;52.156;5.382;2024-03-02T03:33:13;99667.91;;;7.37;100.00
26043;BME280;13818;52.156;5.382;2024-03-02T03:35:39;99666.50;;;7.47;100.00
26043;BME280;13818;52.156;5.382;2024-03-02T03:38:06;99665.88;;;7.42;100.00
26043;BME280;13818;52.156;5.382;2024-03-02T03:40:32;99662.94;;;7.30;100.00
26043;BME280;13818;52.156;5.382;2024-03-02T03:42:58;99674.47;;;7.29;100.00
26043;BME280;13818;52.156;5.382;2024-03-02T03:45:25;99667.34;;;7.30;100.00
26043;BME280;13818;52.156;5.382;2024-03-02T03:47:53;99674.16;;;7.36;100.00
26043;BME280;13818;52.156;5.382;2024-03-02T03:50:20;99675.25;;;7.31;100.00
26043;BME280;13818;52.156;5.382;2024-03-02T03:52:46;99685.84;;;7.31;100.00
26043;BME280;13818;52.156;5.382;2024-03-02T03:55:14;99683.03;;;7.35;100.00
26043;BME280;13818;52.156;5.382;2024-03-02T03:57:40;99686.16;;;7.43;100.00
26043;BME280;13818;52.156;5.382;2024-03-02T04:00:08;99672.50;;;7.33;100.00
26043;BME280;13818;52.156;5.382;2024-03-02T04:02:35;99668.84;;;7.36;100.00
26043;BME280;13818;52.156;5.382;2024-03-02T04:05:03;99675.06;;;7.35;100.00
26043;BME280;13818;52.156;5.382;2024-03-02T04:07:34;99675.00;;;7.36;100.00
26043;BME280;13818;52.156;5.382;2024-03-02T04:10:06;99684.25;;;7.45;100.00
26043;BME280;13818;52.156;5.382;2024-03-02T04:12:34;99688.41;;;7.51;100.00
26043;BME280;13818;52.156;5.382;2024-03-02T04:15:00;99688.94;;;7.57;100.00
26043;BME280;13818;52.156;5.382;2024-03-02T04:17:29;99691.16;;;7.49;100.00
26043;BME280;13818;52.156;5.382;2024-03-02T04:19:55;99685.44;;;7.39;100.00
26043;BME280;13818;52.156;5.382;2024-03-02T04:22:23;99703.44;;;7.50;100.00
26043;BME280;13818;52.156;5.382;2024-03-02T04:24:50;99700.66;;;7.53;100.00
26043;BME280;13818;52.156;5.382;2024-03-02T04:27:16;99696.34;;;7.51;100.00
26043;BME280;13818;52.156;5.382;2024-03-02T04:29:43;99691.91;;;7.51;100.00
26043;BME280;13818;52.156;5.382;2024-03-02T04:32:09;99696.03;;;7.57;100.00
26043;BME280;13818;52.156;5.382;2024-03-02T04:34:36;99697.22;;;7.51;100.00
26043;BME280;13818;52.156;5.382;2024-03-02T04:37:02;99699.84;;;7.51;100.00
26043;BME280;13818;52.156;5.382;2024-03-02T04:39:30;99695.25;;;7.55;100.00
26043;BME280;13818;52.156;5.382;2024-03-02T04:41:56;99701.03;;;7.63;100.00
26043;BME280;13818;52.156;5.382;2024-03-02T04:44:23;99717.38;;;7.71;100.00
26043;BME280;13818;52.156;5.382;2024-03-02T04:46:50;99707.59;;;7.56;100.00
26043;BME280;13818;52.156;5.382;2024-03-02T04:49:16;99710.31;;;7.54;100.00
26043;BME280;13818;52.156;5.382;2024-03-02T04:51:44;99713.03;;;7.53;100.00
26043;BME280;13818;52.156;5.382;2024-03-02T04:54:10;99720.13;;;7.52;100.00
26043;BME280;13818;52.156;5.382;2024-03-02T04:56:40;99720.53;;;7.44;100.00
26043;BME280;13818;52.156;5.382;2024-03-02T04:59:10;99720.63;;;7.43;100.00
26043;BME280;13818;52.156;5.382;2024-03-02T05:01:36;99721.56;;;7.42;100.00
26043;BME280;13818;52.156;5.382;2024-03-02T05:04:03;99718.19;;;7.38;100.00
26043;BME280;13818;52.156;5.382;2024-03-02T05:06:30;99717.25;;;7.39;100.00
26043;BME280;13818;52.156;5.382;2024-03-02T05:08:56;99725.00;;;7.44;100.00
26043;BME280;13818;52.156;5.382;2024-03-02T05:11:23;99737.06;;;7.49;100.00
26043;BME280;13818;52.156;5.382;2024-03-02T05:14:15;99732.56;;;7.52;100.00
26043;BME280;13818;52.156;5.382;2024-03-02T05:16:40;99733.88;;;7.43;100.00
26043;BME280;13818;52.156;5.382;2024-03-02T05:19:07;99734.81;;;7.42;100.00
26043;BME280;13818;52.156;5.382;2024-03-02T05:21:33;99733.09;;;7.41;100.00
26043;BME280;13818;52.156;5.382;2024-03-02T05:24:00;99734.59;;;7.46;100.00
26043;BME280;13818;52.156;5.382;2024-03-02T05:26:27;99730.59;;;7.55;100.00
26043;BME280;13818;52.156;5.382;2024-03-02T05:28:54;99736.66;;;7.40;100.00
26043;BME280;13818;52.156;5.382;2024-03-02T05:31:22;99744.41;;;7.44;100.00
26043;BME280;13818;52.156;5.382;2024-03-02T05:33:48;99733.41;;;7.52;100.00
26043;BME280;13818;52.156;5.382;2024-03-02T05:36:15;99726.94;;;7.58;100.00
26043;BME280;13818;52.156;5.382;2024-03-02T05:38:41;99731.38;;;7.57;100.00
26043;BME280;13818;52.156;5.382;2024-03-02T05:41:08;99728.00;;;7.54;100.00
26043;BME280;13818;52.156;5.382;2024-03-02T05:43:34;99730.13;;;7.47;100.00
26043;BME280;13818;52.156;5.382;2024-03-02T05:46:01;99729.94;;;7.50;100.00
26043;BME280;13818;52.156;5.382;2024-03-02T05:48:29;99730.91;;;7.49;100.00
26043;BME280;13818;52.156;5.382;2024-03-02T05:50:56;99737.47;;;7.42;100.00
26043;BME280;13818;52.156;5.382;2024-03-02T05:53:22;99734.81;;;7.42;100.00
26043;BME280;13818;52.156;5.382;2024-03-02T05:55:49;99743.78;;;7.39;100.00
26043;BME280;13818;52.156;5.382;2024-03-02T05:58:18;99740.19;;;7.40;100.00
26043;BME280;13818;52.156;5.382;2024-03-02T06:00:56;99745.00;;;7.49;100.00
26043;BME280;13818;52.156;5.382;2024-03-02T06:03:23;99745.88;;;7.50;100.00
26043;BME280;13818;52.156;5.382;2024-03-02T06:05:50;99747.66;;;7.49;100.00
26043;BME280;13818;52.156;5.382;2024-03-02T06:08:17;99752.25;;;7.46;100.00
26043;BME280;13818;52.156;5.382;2024-03-02T06:10:43;99761.16;;;7.45;100.00
26043;BME280;13818;52.156;5.382;2024-03-02T06:13:11;99754.28;;;7.41;100.00
26043;BME280;13818;52.156;5.382;2024-03-02T06:15:37;99754.16;;;7.44;100.00
26043;BME280;13818;52.156;5.382;2024-03-02T06:18:04;99751.63;;;7.41;100.00
26043;BME280;13818;52.156;5.382;2024-03-02T06:20:32;99765.06;;;7.38;100.00
26043;BME280;13818;52.156;5.382;2024-03-02T06:23:00;99770.50;;;7.35;100.00
26043;BME280;13818;52.156;5.382;2024-03-02T06:25:26;99770.50;;;7.35;100.00
26043;BME280;13818;52.156;5.382;2024-03-02T06:27:53;99773.06;;;7.36;100.00
26043;BME280;13818;52.156;5.382;2024-03-02T06:30:19;99774.88;;;7.36;100.00
26043;BME280;13818;52.156;5.382;2024-03-02T06:32:46;99779.56;;;7.30;100.00
26043;BME280;13818;52.156;5.382;2024-03-02T06:35:11;99780.25;;;7.34;100.00
26043;BME280;13818;52.156;5.382;2024-03-02T06:37:38;99791.56;;;7.38;100.00
26043;BME280;13818;52.156;5.382;2024-03-02T06:40:08;99793.25;;;7.39;100.00
26043;BME280;13818;52.156;5.382;2024-03-02T06:42:35;99783.44;;;7.41;100.00
26043;BME280;13818;52.156;5.382;2024-03-02T06:45:02;99792.66;;;7.51;100.00
26043;BME280;13818;52.156;5.382;2024-03-02T06:47:28;99792.66;;;7.51;100.00
26043;BME280;13818;52.156;5.382;2024-03-02T06:49:55;99790.09;;;7.49;100.00
26043;BME280;13818;52.156;5.382;2024-03-02T06:52:22;99797.97;;;7.51;100.00
26043;BME280;13818;52.156;5.382;2024-03-02T06:54:49;99791.19;;;7.63;100.00
26043;BME280;13818;52.156;5.382;2024-03-02T06:57:17;99790.19;;;7.65;100.00
26043;BME280;13818;52.156;5.382;2024-03-02T06:59:44;99794.44;;;8.03;100.00
26043;BME280;13818;52.156;5.382;2024-03-02T07:02:11;99791.34;;;8.62;100.00
26043;BME280;13818;52.156;5.382;2024-03-02T07:04:38;99788.53;;;8.97;100.00
26043;BME280;13818;52.156;5.382;2024-03-02T07:07:05;99790.44;;;9.41;100.00
26043;BME280;13818;52.156;5.382;2024-03-02T07:09:31;99791.44;;;10.00;100.00
26043;BME280;13818;52.156;5.382;2024-03-02T07:11:58;99785.50;;;10.25;100.00
26043;BME280;13818;52.156;5.382;2024-03-02T07:14:25;99784.34;;;10.29;100.00
26043;BME280;13818;52.156;5.382;2024-03-02T07:17:12;99787.13;;;10.56;100.00
26043;BME280;13818;52.156;5.382;2024-03-02T07:19:38;99800.34;;;10.72;100.00
26043;BME280;13818;52.156;5.382;2024-03-02T07:22:06;99789.00;;;10.83;100.00
26043;BME280;13818;52.156;5.382;2024-03-02T07:24:38;99795.00;;;10.87;100.00
26043;BME280;13818;52.156;5.382;2024-03-02T07:27:05;99800.03;;;11.19;100.00
26043;BME280;13818;52.156;5.382;2024-03-02T07:29:33;99798.81;;;11.10;100.00
26043;BME280;13818;52.156;5.382;2024-03-02T07:31:59;99808.84;;;11.06;100.00
26043;BME280;13818;52.156;5.382;2024-03-02T07:34:27;99800.41;;;11.27;100.00
26043;BME280;13818;52.156;5.382;2024-03-02T07:36:53;99805.97;;;11.10;100.00
26043;BME280;13818;52.156;5.382;2024-03-02T07:39:20;99810.88;;;11.30;100.00
26043;BME280;13818;52.156;5.382;2024-03-02T07:41:46;99821.56;;;11.43;100.00
26043;BME280;13818;52.156;5.382;2024-03-02T07:44:13;99814.88;;;11.50;100.00
26043;BME280;13818;52.156;5.382;2024-03-02T07:46:41;99823.72;;;11.51;100.00
26043;BME280;13818;52.156;5.382;2024-03-02T07:49:08;99832.63;;;11.64;100.00
26043;BME280;13818;52.156;5.382;2024-03-02T07:51:35;99821.94;;;11.51;100.00
26043;BME280;13818;52.156;5.382;2024-03-02T07:54:02;99820.22;;;11.50;100.00
26043;BME280;13818;52.156;5.382;2024-03-02T07:56:29;99821.25;;;11.20;100.00
26043;BME280;13818;52.156;5.382;2024-03-02T07:58:55;99816.88;;;11.19;100.00
26043;BME280;13818;52.156;5.382;2024-03-02T08:01:26;99824.09;;;11.04;100.00
26043;BME280;13818;52.156;5.382;2024-03-02T08:03:54;99832.94;;;11.05;100.00
26043;BME280;13818;52.156;5.382;2024-03-02T08:06:22;99828.78;;;10.86;100.00
26043;BME280;13818;52.156;5.382;2024-03-02T08:08:48;99837.09;;;10.82;100.00
26043;BME280;13818;52.156;5.382;2024-03-02T08:11:15;99841.75;;;10.64;100.00
26043;BME280;13818;52.156;5.382;2024-03-02T08:13:41;99844.03;;;10.55;100.00
26043;BME280;13818;52.156;5.382;2024-03-02T08:16:08;99849.53;;;10.52;100.00
26043;BME280;13818;52.156;5.382;2024-03-02T08:18:34;99848.59;;;10.39;100.00
26043;BME280;13818;52.156;5.382;2024-03-02T08:21:03;99843.28;;;10.39;100.00
26043;BME280;13818;52.156;5.382;2024-03-02T08:23:29;99847.13;;;10.33;100.00
26043;BME280;13818;52.156;5.382;2024-03-02T08:25:57;99835.69;;;10.31;100.00
26043;BME280;13818;52.156;5.382;2024-03-02T08:28:24;99840.78;;;10.36;100.00
26043;BME280;13818;52.156;5.382;2024-03-02T08:30:51;99838.53;;;10.44;100.00
26043;BME280;13818;52.156;5.382;2024-03-02T08:33:17;99838.91;;;10.67;100.00
26043;BME280;13818;52.156;5.382;2024-03-02T08:35:44;99841.56;;;10.67;100.00
26043;BME280;13818;52.156;5.382;2024-03-02T08:38:14;99835.38;;;10.81;100.00
26043;BME280;13818;52.156;5.382;2024-03-02T08:40:40;99837.97;;;11.10;100.00
26043;BME280;13818;52.156;5.382;2024-03-02T08:43:07;99835.97;;;11.40;100.00
26043;BME280;13818;52.156;5.382;2024-03-02T08:45:33;99850.59;;;11.35;100.00
26043;BME280;13818;52.156;5.382;2024-03-02T08:48:01;99851.44;;;11.35;100.00
26043;BME280;13818;52.156;5.382;2024-03-02T08:50:27;99841.78;;;11.47;100.00
26043;BME280;13818;52.156;5.382;2024-03-02T08:52:54;99838.44;;;11.44;100.00
26043;BME280;13818;52.156;5.382;2024-03-02T08:55:22;99829.91;;;11.38;100.00
26043;BME280;13818;52.156;5.382;2024-03-02T08:57:48;99837.28;;;11.48;100.00
26043;BME280;13818;52.156;5.382;2024-03-02T09:00:16;99844.25;;;11.63;100.00
26043;BME280;13818;52.156;5.382;2024-03-02T09:02:44;99839.88;;;11.62;100.00
26043;BME280;13818;52.156;5.382;2024-03-02T09:05:10;99837.13;;;11.64;100.00
26043;BME280;13818;52.156;5.382;2024-03-02T09:07:37;99847.34;;;11.57;100.00
26043;BME280;13818;52.156;5.382;2024-03-02T09:10:05;99847.88;;;11.62;100.00
26043;BME280;13818;52.156;5.382;2024-03-02T09:12:33;99850.06;;;11.70;100.00
26043;BME280;13818;52.156;5.382;2024-03-02T09:15:00;99841.16;;;11.29;100.00
26043;BME280;13818;52.156;5.382;2024-03-02T09:17:28;99845.94;;;11.24;100.00
26043;BME280;13818;52.156;5.382;2024-03-02T09:19:54;99853.38;;;11.19;100.00
26043;BME280;13818;52.156;5.382;2024-03-02T09:22:21;99849.72;;;11.34;100.00
26043;BME280;13818;52.156;5.382;2024-03-02T09:24:48;99841.94;;;11.59;100.00
26043;BME280;13818;52.156;5.382;2024-03-02T09:27:15;99842.56;;;11.62;100.00
26043;BME280;13818;52.156;5.382;2024-03-02T09:29:42;99846.59;;;11.55;100.00
26043;BME280;13818;52.156;5.382;2024-03-02T09:32:12;99851.94;;;11.55;100.00
26043;BME280;13818;52.156;5.382;2024-03-02T09:34:39;99849.81;;;11.60;100.00
26043;BME280;13818;52.156;5.382;2024-03-02T09:37:07;99851.81;;;11.84;100.00
26043;BME280;13818;52.156;5.382;2024-03-02T09:39:34;99855.75;;;11.78;100.00
26043;BME280;13818;52.156;5.382;2024-03-02T09:42:01;99860.78;;;11.55;100.00
26043;BME280;13818;52.156;5.382;2024-03-02T09:44:28;99859.31;;;11.64;100.00
26043;BME280;13818;52.156;5.382;2024-03-02T09:46:56;99867.03;;;11.69;100.00
26043;BME280;13818;52.156;5.382;2024-03-02T09:49:24;99862.94;;;11.63;100.00
26043;BME280;13818;52.156;5.382;2024-03-02T09:51:50;99866.41;;;11.51;100.00
26043;BME280;13818;52.156;5.382;2024-03-02T09:54:17;99857.50;;;11.65;100.00
26043;BME280;13818;52.156;5.382;2024-03-02T09:56:43;99852.03;;;11.53;100.00
26043;BME280;13818;52.156;5.382;2024-03-02T09:59:10;99856.00;;;11.61;100.00
26043;BME280;13818;52.156;5.382;2024-03-02T10:01:37;99858.13;;;11.55;100.00
26043;BME280;13818;52.156;5.382;2024-03-02T10:04:05;99849.47;;;11.52;100.00
26043;BME280;13818;52.156;5.382;2024-03-02T10:06:31;99862.22;;;11.61;100.00
26043;BME280;13818;52.156;5.382;2024-03-02T10:08:59;99856.81;;;11.48;100.00
26043;BME280;13818;52.156;5.382;2024-03-02T10:11:27;99854.69;;;11.53;100.00
26043;BME280;13818;52.156;5.382;2024-03-02T10:14:12;99852.16;;;11.65;100.00
26043;BME280;13818;52.156;5.382;2024-03-02T10:16:40;99858.63;;;11.48;100.00
26043;BME280;13818;52.156;5.382;2024-03-02T10:19:16;99850.91;;;11.43;100.00
26043;BME280;13818;52.156;5.382;2024-03-02T10:21:43;99861.03;;;11.38;100.00
26043;BME280;13818;52.156;5.382;2024-03-02T10:24:10;99860.91;;;11.54;100.00
26043;BME280;13818;52.156;5.382;2024-03-02T10:26:38;99859.53;;;11.61;100.00
26043;BME280;13818;52.156;5.382;2024-03-02T10:29:04;99855.16;;;11.60;100.00
26043;BME280;13818;52.156;5.382;2024-03-02T10:31:32;99859.13;;;11.40;100.00
26043;BME280;13818;52.156;5.382;2024-03-02T10:33:59;99855.25;;;11.31;100.00
26043;BME280;13818;52.156;5.382;2024-03-02T10:36:28;99847.25;;;11.31;100.00
26043;BME280;13818;52.156;5.382;2024-03-02T10:38:56;99838.81;;;11.25;100.00
26043;BME280;13818;52.156;5.382;2024-03-02T10:41:26;99842.25;;;11.39;100.00
26043;BME280;13818;52.156;5.382;2024-03-02T10:43:53;99845.03;;;11.38;100.00
26043;BME280;13818;52.156;5.382;2024-03-02T10:46:27;99845.94;;;11.51;100.00
26043;BME280;13818;52.156;5.382;2024-03-02T10:48:54;99840.25;;;11.43;100.00
26043;BME280;13818;52.156;5.382;2024-03-02T10:51:20;99829.97;;;11.37;100.00
26043;BME280;13818;52.156;5.382;2024-03-02T10:53:48;99840.28;;;11.56;100.00
26043;BME280;13818;52.156;5.382;2024-03-02T10:56:21;99827.19;;;11.66;100.00
26043;BME280;13818;52.156;5.382;2024-03-02T10:58:51;99818.88;;;11.70;100.00
26043;BME280;13818;52.156;5.382;2024-03-02T11:01:21;99822.00;;;11.77;100.00
26043;BME280;13818;52.156;5.382;2024-03-02T11:03:48;99814.19;;;11.61;100.00
26043;BME280;13818;52.156;5.382;2024-03-02T11:06:15;99809.75;;;11.47;100.00
26043;BME280;13818;52.156;5.382;2024-03-02T11:08:44;99811.31;;;11.37;100.00
26043;BME280;13818;52.156;5.382;2024-03-02T11:11:15;99812.91;;;11.39;100.00
26043;BME280;13818;52.156;5.382;2024-03-02T11:13:48;99811.38;;;11.50;100.00
26043;BME280;13818;52.156;5.382;2024-03-02T11:16:24;99828.25;;;11.63;100.00
26043;BME280;13818;52.156;5.382;2024-03-02T11:18:55;99830.91;;;11.63;100.00
26043;BME280;13818;52.156;5.382;2024-03-02T11:21:23;99830.06;;;11.63;100.00
26043;BME280;13818;52.156;5.382;2024-03-02T11:23:51;99819.84;;;11.42;100.00
26043;BME280;13818;52.156;5.382;2024-03-02T11:26:19;99825.41;;;11.39;100.00
26043;BME280;13818;52.156;5.382;2024-03-02T11:28:46;99827.81;;;11.56;100.00
26043;BME280;13818;52.156;5.382;2024-03-02T11:31:12;99838.00;;;11.77;100.00
26043;BME280;13818;52.156;5.382;2024-03-02T11:33:39;99825.28;;;11.68;100.00
26043;BME280;13818;52.156;5.382;2024-03-02T11:36:07;99829.75;;;11.67;100.00
26043;BME280;13818;52.156;5.382;2024-03-02T11:38:34;99820.44;;;11.47;100.00
26043;BME280;13818;52.156;5.382;2024-03-02T11:41:02;99819.44;;;11.48;100.00
26043;BME280;13818;52.156;5.382;2024-03-02T11:43:37;99822.19;;;11.61;100.00
26043;BME280;13818;52.156;5.382;2024-03-02T11:46:05;99806.78;;;11.65;100.00
26043;BME280;13818;52.156;5.382;2024-03-02T11:48:35;99812.06;;;11.66;100.00
26043;BME280;13818;52.156;5.382;2024-03-02T11:51:02;99804.22;;;11.63;100.00
26043;BME280;13818;52.156;5.382;2024-03-02T11:53:28;99800.09;;;11.72;100.00
26043;BME280;13818;52.156;5.382;2024-03-02T11:55:55;99812.19;;;11.78;100.00
26043;BME280;13818;52.156;5.382;2024-03-02T11:58:22;99803.63;;;11.72;100.00
26043;BME280;13818;52.156;5.382;2024-03-02T12:00:52;99794.75;;;11.85;100.00
26043;BME280;13818;52.156;5.382;2024-03-02T12:03:20;99793.63;;;11.89;100.00
26043;BME280;13818;52.156;5.382;2024-03-02T12:05:48;99792.09;;;11.85;100.00
26043;BME280;13818;52.156;5.382;2024-03-02T12:08:15;99783.34;;;11.83;100.00
26043;BME280;13818;52.156;5.382;2024-03-02T12:10:42;99795.00;;;11.95;100.00
26043;BME280;13818;52.156;5.382;2024-03-02T12:13:10;99790.88;;;12.03;100.00
26043;BME280;13818;52.156;5.382;2024-03-02T12:15:38;99782.31;;;12.11;100.00
26043;BME280;13818;52.156;5.382;2024-03-02T12:18:06;99781.38;;;12.12;100.00
26043;BME280;13818;52.156;5.382;2024-03-02T12:20:34;99776.44;;;12.19;100.00
26043;BME280;13818;52.156;5.382;2024-03-02T12:23:02;99783.31;;;12.23;100.00
26043;BME280;13818;52.156;5.382;2024-03-02T12:25:29;99780.84;;;12.20;100.00
26043;BME280;13818;52.156;5.382;2024-03-02T12:27:58;99776.03;;;12.12;99.76
26043;BME280;13818;52.156;5.382;2024-03-02T12:30:27;99770.47;;;12.28;100.00
26043;BME280;13818;52.156;5.382;2024-03-02T12:32:56;99771.41;;;12.40;100.00
26043;BME280;13818;52.156;5.382;2024-03-02T12:35:24;99763.59;;;12.50;100.00
26043;BME280;13818;52.156;5.382;2024-03-02T12:37:52;99766.91;;;12.53;98.30
26043;BME280;13818;52.156;5.382;2024-03-02T12:40:20;99772.56;;;12.49;97.71
26043;BME280;13818;52.156;5.382;2024-03-02T12:42:48;99769.06;;;12.48;98.96
26043;BME280;13818;52.156;5.382;2024-03-02T12:45:16;99753.34;;;12.44;99.60
26043;BME280;13818;52.156;5.382;2024-03-02T12:47:49;99749.47;;;12.61;99.06
26043;BME280;13818;52.156;5.382;2024-03-02T12:50:15;99752.44;;;12.69;99.31
26043;BME280;13818;52.156;5.382;2024-03-02T12:52:43;99741.47;;;12.61;100.00
26043;BME280;13818;52.156;5.382;2024-03-02T12:55:10;99751.03;;;12.26;100.00
26043;BME280;13818;52.156;5.382;2024-03-02T12:57:36;99737.44;;;12.16;100.00